sensor_id;sensor_type;location;lat;lon;timestamp;pressure;altitude;pressure_sealevel;temperature;humidity
22582;BME280;47125;48.542;9.052;2023-06-22T00:02:57;96098.41;;;22.92;74.51
22582;BME280;47125;48.542;9.052;2023-06-22T00:13:00;96121.53;;;22.73;75.40
22582;BME280;47125;48.542;9.052;2023-06-22T00:23:04;96111.81;;;22.58;75.87
22582;BME280;47125;48.542;9.052;2023-06-22T00:33:09;96102.00;;;22.57;76.41
22582;BME280;47125;48.542;9.052;2023-06-22T00:43:13;96083.59;;;22.54;76.40
22582;BME280;47125;48.542;9.052;2023-06-22T00:53:16;96102.91;;;22.44;77.62
22582;BME280;47125;48.542;9.052;2023-06-22T01:03:20;96125.47;;;22.44;77.19
22582;BME280;47125;48.542;9.052;2023-06-22T01:13:25;96122.75;;;22.22;78.20
22582;BME280;47125;48.542;9.052;2023-06-22T01:23:33;96110.66;;;22.15;78.24
22582;BME280;47125;48.542;9.052;2023-06-22T01:33:41;96098.91;;;22.06;78.84
22582;BME280;47125;48.542;9.052;2023-06-22T01:43:44;96099.56;;;21.89;79.88
22582;BME280;47125;48.542;9.052;2023-06-22T01:53:49;96098.03;;;21.96;79.38
22582;BME280;47125;48.542;9.052;2023-06-22T02:14:14;96112.53;;;21.78;80.34
22582;BME280;47125;48.542;9.052;2023-06-22T02:24:20;96103.69;;;21.86;79.87
22582;BME280;47125;48.542;9.052;2023-06-22T02:34:38;96112.03;;;21.76;80.16
22582;BME280;47125;48.542;9.052;2023-06-22T02:44:43;96089.91;;;21.69;80.69
22582;BME280;47125;48.542;9.052;2023-06-22T02:54:47;96068.63;;;21.08;84.51
22582;BME280;47125;48.542;9.052;2023-06-22T03:04:49;96074.84;;;21.22;83.49
22582;BME280;47125;48.542;9.052;2023-06-22T03:14:56;96072.44;;;21.34;82.38
22582;BME280;47125;48.542;9.052;2023-06-22T03:24:59;96068.91;;;21.34;82.82
22582;BME280;47125;48.542;9.052;2023-06-22T03:35:07;96064.25;;;21.48;81.27
22582;BME280;47125;48.542;9.052;2023-06-22T03:45:12;96065.19;;;21.43;82.00
22582;BME280;47125;48.542;9.052;2023-06-22T03:55:16;96060.66;;;21.53;81.07
22582;BME280;47125;48.542;9.052;2023-06-22T04:05:19;96043.53;;;21.52;81.02
22582;BME280;47125;48.542;9.052;2023-06-22T04:15:23;96048.63;;;21.67;80.37
22582;BME280;47125;48.542;9.052;2023-06-22T04:25:25;96040.97;;;21.69;80.92
22582;BME280;47125;48.542;9.052;2023-06-22T04:35:29;96020.31;;;21.32;81.89
22582;BME280;47125;48.542;9.052;2023-06-22T04:45:32;96025.13;;;21.49;81.41
22582;BME280;47125;48.542;9.052;2023-06-22T04:55:36;96014.25;;;21.49;81.40
22582;BME280;47125;48.542;9.052;2023-06-22T05:05:43;96003.00;;;21.78;79.55
22582;BME280;47125;48.542;9.052;2023-06-22T05:15:46;96004.13;;;21.99;79.99
22582;BME280;47125;48.542;9.052;2023-06-22T05:25:49;96002.47;;;22.12;79.04
22582;BME280;47125;48.542;9.052;2023-06-22T05:35:53;96003.22;;;22.26;79.47
22582;BME280;47125;48.542;9.052;2023-06-22T05:45:56;96007.75;;;22.39;79.42
22582;BME280;47125;48.542;9.052;2023-06-22T05:55:59;96010.00;;;22.37;78.77
22582;BME280;47125;48.542;9.052;2023-06-22T06:06:02;96003.94;;;22.40;75.79
22582;BME280;47125;48.542;9.052;2023-06-22T06:16:06;96000.84;;;22.64;75.19
22582;BME280;47125;48.542;9.052;2023-06-22T06:26:08;96012.28;;;22.74;74.59
22582;BME280;47125;48.542;9.052;2023-06-22T06:36:19;96007.22;;;22.90;74.91
22582;BME280;47125;48.542;9.052;2023-06-22T06:46:21;96009.72;;;23.09;73.21
22582;BME280;47125;48.542;9.052;2023-06-22T06:56:25;96011.00;;;23.20;71.15
22582;BME280;47125;48.542;9.052;2023-06-22T07:06:28;96003.34;;;23.30;70.14
22582;BME280;47125;48.542;9.052;2023-06-22T07:16:34;95991.69;;;23.55;71.88
22582;BME280;47125;48.542;9.052;2023-06-22T07:26:37;95973.09;;;23.83;70.02
22582;BME280;47125;48.542;9.052;2023-06-22T07:36:41;95953.22;;;24.00;71.14
22582;BME280;47125;48.542;9.052;2023-06-22T07:46:44;95957.53;;;24.27;69.70
22582;BME280;47125;48.542;9.052;2023-06-22T07:56:47;95964.53;;;24.45;69.22
22582;BME280;47125;48.542;9.052;2023-06-22T08:06:50;96002.28;;;24.51;66.39
22582;BME280;47125;48.542;9.052;2023-06-22T08:16:54;96033.53;;;24.71;66.47
22582;BME280;47125;48.542;9.052;2023-06-22T08:26:56;96032.84;;;24.91;65.32
22582;BME280;47125;48.542;9.052;2023-06-22T08:37:00;96044.38;;;25.05;65.59
22582;BME280;47125;48.542;9.052;2023-06-22T08:47:05;96028.25;;;25.12;64.75
22582;BME280;47125;48.542;9.052;2023-06-22T08:57:09;96021.06;;;25.08;65.58
22582;BME280;47125;48.542;9.052;2023-06-22T09:07:12;96033.25;;;25.40;65.37
22582;BME280;47125;48.542;9.052;2023-06-22T09:17:16;96023.09;;;25.49;64.47
22582;BME280;47125;48.542;9.052;2023-06-22T09:27:19;95988.00;;;25.51;64.76
22582;BME280;47125;48.542;9.052;2023-06-22T09:37:22;95976.22;;;25.80;63.67
22582;BME280;47125;48.542;9.052;2023-06-22T09:47:25;95966.63;;;26.27;61.76
22582;BME280;47125;48.542;9.052;2023-06-22T09:57:29;95939.69;;;26.29;62.00
22582;BME280;47125;48.542;9.052;2023-06-22T10:07:33;95929.47;;;26.50;62.03
22582;BME280;47125;48.542;9.052;2023-06-22T10:17:36;95932.16;;;27.19;63.78
22582;BME280;47125;48.542;9.052;2023-06-22T10:27:39;95925.09;;;27.18;62.62
22582;BME280;47125;48.542;9.052;2023-06-22T10:48:01;95906.44;;;27.36;61.50
22582;BME280;47125;48.542;9.052;2023-06-22T10:58:04;95911.69;;;27.29;62.56
22582;BME280;47125;48.542;9.052;2023-06-22T11:08:10;95909.88;;;27.33;63.91
22582;BME280;47125;48.542;9.052;2023-06-22T11:18:12;95917.84;;;27.38;59.95
22582;BME280;47125;48.542;9.052;2023-06-22T11:28:16;95891.63;;;28.20;60.75
22582;BME280;47125;48.542;9.052;2023-06-22T11:38:19;95911.53;;;27.62;59.62
22582;BME280;47125;48.542;9.052;2023-06-22T11:48:22;95906.91;;;27.78;62.64
22582;BME280;47125;48.542;9.052;2023-06-22T11:58:25;95900.69;;;27.53;59.97
22582;BME280;47125;48.542;9.052;2023-06-22T12:08:29;95903.97;;;27.59;58.64
22582;BME280;47125;48.542;9.052;2023-06-22T12:18:32;95916.13;;;27.58;59.35
22582;BME280;47125;48.542;9.052;2023-06-22T12:28:36;95950.06;;;27.53;59.58
22582;BME280;47125;48.542;9.052;2023-06-22T12:38:39;95952.50;;;27.55;59.32
22582;BME280;47125;48.542;9.052;2023-06-22T12:48:42;95924.53;;;27.65;59.65
22582;BME280;47125;48.542;9.052;2023-06-22T12:58:45;95914.47;;;27.69;60.90
22582;BME280;47125;48.542;9.052;2023-06-22T13:08:49;95901.59;;;27.85;61.30
22582;BME280;47125;48.542;9.052;2023-06-22T13:18:55;95891.41;;;27.85;60.12
22582;BME280;47125;48.542;9.052;2023-06-22T13:28:58;95888.69;;;28.13;57.47
22582;BME280;47125;48.542;9.052;2023-06-22T13:39:01;95896.53;;;28.58;56.06
22582;BME280;47125;48.542;9.052;2023-06-22T13:49:06;95878.38;;;28.69;56.38
22582;BME280;47125;48.542;9.052;2023-06-22T13:59:08;95842.09;;;28.48;57.10
22582;BME280;47125;48.542;9.052;2023-06-22T14:09:13;95831.66;;;28.38;58.90
22582;BME280;47125;48.542;9.052;2023-06-22T14:19:16;95832.34;;;28.66;58.17
22582;BME280;47125;48.542;9.052;2023-06-22T14:29:24;95852.03;;;29.19;57.25
22582;BME280;47125;48.542;9.052;2023-06-22T14:39:27;95850.75;;;30.28;53.15
22582;BME280;47125;48.542;9.052;2023-06-22T14:49:31;95841.34;;;30.32;43.57
22582;BME280;47125;48.542;9.052;2023-06-22T14:59:33;95827.13;;;29.85;39.38
22582;BME280;47125;48.542;9.052;2023-06-22T15:09:37;95828.69;;;29.67;40.01
22582;BME280;47125;48.542;9.052;2023-06-22T15:19:43;95825.34;;;29.38;39.59
22582;BME280;47125;48.542;9.052;2023-06-22T15:29:47;95825.25;;;29.16;36.60
22582;BME280;47125;48.542;9.052;2023-06-22T15:39:50;95824.44;;;28.96;37.44
22582;BME280;47125;48.542;9.052;2023-06-22T15:49:54;95800.00;;;28.60;39.09
22582;BME280;47125;48.542;9.052;2023-06-22T15:59:56;95826.69;;;28.43;40.11
22582;BME280;47125;48.542;9.052;2023-06-22T16:10:00;95834.13;;;28.12;41.11
22582;BME280;47125;48.542;9.052;2023-06-22T16:20:03;95771.44;;;27.86;42.99
22582;BME280;47125;48.542;9.052;2023-06-22T16:30:12;95730.88;;;27.64;43.96
22582;BME280;47125;48.542;9.052;2023-06-22T16:40:14;95753.81;;;27.71;44.17
22582;BME280;47125;48.542;9.052;2023-06-22T16:50:22;95766.28;;;27.69;43.03
22582;BME280;47125;48.542;9.052;2023-06-22T17:00:25;95766.63;;;27.52;42.00
22582;BME280;47125;48.542;9.052;2023-06-22T17:10:34;95780.34;;;27.40;42.59
22582;BME280;47125;48.542;9.052;2023-06-22T17:20:40;95813.25;;;27.12;42.93
22582;BME280;47125;48.542;9.052;2023-06-22T17:30:44;95825.06;;;26.88;43.05
22582;BME280;47125;48.542;9.052;2023-06-22T17:40:47;95836.00;;;26.40;43.16
22582;BME280;47125;48.542;9.052;2023-06-22T17:50:54;95859.53;;;26.08;44.60
22582;BME280;47125;48.542;9.052;2023-06-22T18:00:57;95894.03;;;25.88;45.15
22582;BME280;47125;48.542;9.052;2023-06-22T18:11:01;95905.78;;;25.56;45.98
22582;BME280;47125;48.542;9.052;2023-06-22T18:21:08;95818.16;;;25.44;48.98
22582;BME280;47125;48.542;9.052;2023-06-22T18:31:13;95778.09;;;25.27;50.44
22582;BME280;47125;48.542;9.052;2023-06-22T18:41:33;95813.66;;;24.86;53.26
22582;BME280;47125;48.542;9.052;2023-06-22T18:51:50;95854.97;;;24.46;56.40
22582;BME280;47125;48.542;9.052;2023-06-22T19:01:53;95817.41;;;24.14;59.96
22582;BME280;47125;48.542;9.052;2023-06-22T19:22:14;95875.44;;;23.42;63.51
22582;BME280;47125;48.542;9.052;2023-06-22T19:32:18;95878.09;;;22.91;65.02
22582;BME280;47125;48.542;9.052;2023-06-22T19:52:40;95919.78;;;23.00;62.99
22582;BME280;47125;48.542;9.052;2023-06-22T20:02:43;95958.13;;;23.12;62.73
22582;BME280;47125;48.542;9.052;2023-06-22T20:12:51;95963.19;;;22.96;62.63
22582;BME280;47125;48.542;9.052;2023-06-22T20:22:54;95966.38;;;22.90;63.73
22582;BME280;47125;48.542;9.052;2023-06-22T20:32:58;95982.00;;;22.45;66.81
22582;BME280;47125;48.542;9.052;2023-06-22T20:43:02;95990.75;;;22.33;67.34
22582;BME280;47125;48.542;9.052;2023-06-22T20:53:06;95985.03;;;22.13;68.88
22582;BME280;47125;48.542;9.052;2023-06-22T21:03:09;96013.78;;;22.27;68.39
22582;BME280;47125;48.542;9.052;2023-06-22T21:13:13;96014.19;;;22.21;68.02
22582;BME280;47125;48.542;9.052;2023-06-22T21:23:16;96025.72;;;22.18;67.80
22582;BME280;47125;48.542;9.052;2023-06-22T21:33:24;96039.94;;;21.92;69.14
22582;BME280;47125;48.542;9.052;2023-06-22T21:43:26;96076.44;;;22.14;67.56
22582;BME280;47125;48.542;9.052;2023-06-22T21:53:32;96094.03;;;21.80;68.96
22582;BME280;47125;48.542;9.052;2023-06-22T22:03:34;96111.03;;;21.86;69.05
22582;BME280;47125;48.542;9.052;2023-06-22T22:13:38;96107.75;;;22.11;67.50
22582;BME280;47125;48.542;9.052;2023-06-22T22:23:42;96125.66;;;21.49;70.35
22582;BME280;47125;48.542;9.052;2023-06-22T22:33:45;96146.38;;;21.86;69.53
22582;BME280;47125;48.542;9.052;2023-06-22T22:43:48;96124.63;;;21.72;70.17
22582;BME280;47125;48.542;9.052;2023-06-22T22:53:52;96117.47;;;21.76;69.80
22582;BME280;47125;48.542;9.052;2023-06-22T23:03:55;96108.44;;;21.67;70.83
22582;BME280;47125;48.542;9.052;2023-06-22T23:13:59;96113.66;;;21.77;70.79
22582;BME280;47125;48.542;9.052;2023-06-22T23:24:06;96116.31;;;21.41;74.62
22582;BME280;47125;48.542;9.052;2023-06-22T23:34:10;96106.16;;;21.47;75.69
22582;BME280;47125;48.542;9.052;2023-06-22T23:44:13;96127.47;;;21.67;74.86
22582;BME280;47125;48.542;9.052;2023-06-22T23:54:17;96152.63;;;21.46;77.47
